Pattersonville, Pennsylvania
Current Conditions -  °F | °C
As of 3:15 PM on Saturday 25 Oct 2014 (Local Time) from KHZL Reporting Station
Scattered Clouds Scattered Clouds  
Wind Chill: 63°   Ceiling: Unl
Heat Index: 63°   Visibility: 10mi
Dew Point: 41°   Wind: 12mph
Humidity: 45%   Direction: 230°SW
Pressure: 29.75"   Gusts: 17mph
Location:  40.8516°N, 76.2497°W
Report Text: KHZL 251915Z AUTO 23010G15KT 190V260 10SM SCT045 17/05 A2975 RMK AO2
Loading
Personal Weather Stations






























Interactive Weather Map
Tropical Storm Tracking
New forecast layout! Learn more

10-Day Weather Forecast

Advertisements
Track Severe Weather on mobile